sensor_id;sensor_type;location;lat;lon;timestamp;temperature;humidity
15048;DHT22;7621;52.350;13.308;2023-04-01T04:09:59;11.20;99.90
15048;DHT22;7621;52.350;13.308;2023-04-01T04:12:25;11.20;99.90
15048;DHT22;7621;52.350;13.308;2023-04-01T04:14:50;11.20;99.90
15048;DHT22;7621;52.350;13.308;2023-04-01T04:17:16;11.20;99.90
15048;DHT22;7621;52.350;13.308;2023-04-01T04:19:42;11.20;99.90
15048;DHT22;7621;52.350;13.308;2023-04-01T04:22:08;11.20;99.90
15048;DHT22;7621;52.350;13.308;2023-04-01T04:24:34;11.10;99.90
15048;DHT22;7621;52.350;13.308;2023-04-01T04:27:00;11.20;99.90
15048;DHT22;7621;52.350;13.308;2023-04-01T04:29:26;11.10;99.90
15048;DHT22;7621;52.350;13.308;2023-04-01T04:31:51;11.10;99.90
15048;DHT22;7621;52.350;13.308;2023-04-01T04:34:17;11.10;99.90
15048;DHT22;7621;52.350;13.308;2023-04-01T04:36:44;11.10;99.90
15048;DHT22;7621;52.350;13.308;2023-04-01T04:39:09;11.10;99.90
15048;DHT22;7621;52.350;13.308;2023-04-01T04:41:37;11.10;99.90
15048;DHT22;7621;52.350;13.308;2023-04-01T04:44:03;11.10;99.90
15048;DHT22;7621;52.350;13.308;2023-04-01T04:46:29;11.10;99.90
15048;DHT22;7621;52.350;13.308;2023-04-01T04:48:55;11.10;99.90
15048;DHT22;7621;52.350;13.308;2023-04-01T04:51:21;11.10;99.90
15048;DHT22;7621;52.350;13.308;2023-04-01T04:53:48;11.20;99.90
15048;DHT22;7621;52.350;13.308;2023-04-01T04:56:18;11.20;99.90
15048;DHT22;7621;52.350;13.308;2023-04-01T04:58:44;11.20;99.90
15048;DHT22;7621;52.350;13.308;2023-04-01T05:01:11;11.20;99.90
15048;DHT22;7621;52.350;13.308;2023-04-01T05:03:38;11.20;99.90
15048;DHT22;7621;52.350;13.308;2023-04-01T05:06:04;11.20;99.90
15048;DHT22;7621;52.350;13.308;2023-04-01T05:08:30;11.20;99.90
15048;DHT22;7621;52.350;13.308;2023-04-01T05:10:58;11.20;99.90
15048;DHT22;7621;52.350;13.308;2023-04-01T05:13:23;11.20;99.90
15048;DHT22;7621;52.350;13.308;2023-04-01T05:15:49;11.30;99.90
15048;DHT22;7621;52.350;13.308;2023-04-01T05:18:15;11.30;99.90
15048;DHT22;7621;52.350;13.308;2023-04-01T05:20:49;11.30;99.90
15048;DHT22;7621;52.350;13.308;2023-04-01T05:23:15;11.30;99.90
15048;DHT22;7621;52.350;13.308;2023-04-01T05:25:42;11.30;99.90
15048;DHT22;7621;52.350;13.308;2023-04-01T05:28:08;11.30;99.90
15048;DHT22;7621;52.350;13.308;2023-04-01T05:30:33;11.40;99.90
15048;DHT22;7621;52.350;13.308;2023-04-01T05:32:59;11.40;99.90
15048;DHT22;7621;52.350;13.308;2023-04-01T05:35:25;11.40;99.90
15048;DHT22;7621;52.350;13.308;2023-04-01T05:37:51;11.50;99.90
15048;DHT22;7621;52.350;13.308;2023-04-01T05:40:16;11.50;99.90
15048;DHT22;7621;52.350;13.308;2023-04-01T05:42:42;11.50;99.90
15048;DHT22;7621;52.350;13.308;2023-04-01T05:45:07;11.60;99.90
15048;DHT22;7621;52.350;13.308;2023-04-01T05:47:34;11.70;99.90
15048;DHT22;7621;52.350;13.308;2023-04-01T05:49:59;11.70;99.90
15048;DHT22;7621;52.350;13.308;2023-04-01T05:52:25;11.90;99.90
15048;DHT22;7621;52.350;13.308;2023-04-01T05:54:51;12.00;99.90
15048;DHT22;7621;52.350;13.308;2023-04-01T05:57:16;12.10;99.90
15048;DHT22;7621;52.350;13.308;2023-04-01T05:59:42;12.20;99.90
15048;DHT22;7621;52.350;13.308;2023-04-01T06:02:08;12.30;99.90
15048;DHT22;7621;52.350;13.308;2023-04-01T06:04:38;12.40;99.90
15048;DHT22;7621;52.350;13.308;2023-04-01T06:07:15;12.60;99.90
15048;DHT22;7621;52.350;13.308;2023-04-01T06:09:42;12.70;99.90
15048;DHT22;7621;52.350;13.308;2023-04-01T06:12:13;12.80;99.90
15048;DHT22;7621;52.350;13.308;2023-04-01T06:15:30;12.90;99.90
15048;DHT22;7621;52.350;13.308;2023-04-01T06:21:21;12.90;99.90
15048;DHT22;7621;52.350;13.308;2023-04-01T06:24:05;12.90;99.90
15048;DHT22;7621;52.350;13.308;2023-04-01T06:29:41;13.10;99.90
15048;DHT22;7621;52.350;13.308;2023-04-01T06:34:59;13.50;99.90
15048;DHT22;7621;52.350;13.308;2023-04-01T06:40:50;13.80;99.90
15048;DHT22;7621;52.350;13.308;2023-04-01T06:43:33;14.00;99.90
15048;DHT22;7621;52.350;13.308;2023-04-01T06:49:33;14.50;99.90
15048;DHT22;7621;52.350;13.308;2023-04-01T06:54:40;15.10;99.90
15048;DHT22;7621;52.350;13.308;2023-04-01T06:57:32;15.30;99.90
15048;DHT22;7621;52.350;13.308;2023-04-01T07:00:03;15.50;99.90
15048;DHT22;7621;52.350;13.308;2023-04-01T07:02:43;15.80;99.90
15048;DHT22;7621;52.350;13.308;2023-04-01T07:05:11;15.90;99.90
15048;DHT22;7621;52.350;13.308;2023-04-01T07:07:44;16.20;99.90
15048;DHT22;7621;52.350;13.308;2023-04-01T07:10:31;16.40;99.90
15048;DHT22;7621;52.350;13.308;2023-04-01T07:13:00;16.50;99.90
15048;DHT22;7621;52.350;13.308;2023-04-01T07:15:32;16.50;99.70
15048;DHT22;7621;52.350;13.308;2023-04-01T07:18:03;16.30;99.60
15048;DHT22;7621;52.350;13.308;2023-04-01T07:20:32;16.20;99.60
15048;DHT22;7621;52.350;13.308;2023-04-01T07:23:03;16.10;99.70
15048;DHT22;7621;52.350;13.308;2023-04-01T07:25:34;16.00;99.90
15048;DHT22;7621;52.350;13.308;2023-04-01T07:28:11;15.90;99.10
15048;DHT22;7621;52.350;13.308;2023-04-01T07:31:13;15.70;99.20
15048;DHT22;7621;52.350;13.308;2023-04-01T07:33:58;15.60;99.60
15048;DHT22;7621;52.350;13.308;2023-04-01T07:36:48;15.40;99.60
15048;DHT22;7621;52.350;13.308;2023-04-01T07:45:17;14.90;99.90
15048;DHT22;7621;52.350;13.308;2023-04-01T07:48:19;14.80;99.90
15048;DHT22;7621;52.350;13.308;2023-04-01T07:53:36;14.80;99.90
15048;DHT22;7621;52.350;13.308;2023-04-01T07:56:10;14.80;99.90
15048;DHT22;7621;52.350;13.308;2023-04-01T07:58:40;14.80;99.90
15048;DHT22;7621;52.350;13.308;2023-04-01T08:01:35;14.90;99.90
15048;DHT22;7621;52.350;13.308;2023-04-01T08:04:24;15.00;99.90
15048;DHT22;7621;52.350;13.308;2023-04-01T08:12:14;15.10;99.90
15048;DHT22;7621;52.350;13.308;2023-04-01T08:14:52;15.20;99.90
15048;DHT22;7621;52.350;13.308;2023-04-01T08:23:13;15.30;99.90
15048;DHT22;7621;52.350;13.308;2023-04-01T08:25:52;15.40;99.90
15048;DHT22;7621;52.350;13.308;2023-04-01T08:28:24;15.50;99.90
15048;DHT22;7621;52.350;13.308;2023-04-01T08:30:56;15.60;99.90
15048;DHT22;7621;52.350;13.308;2023-04-01T08:33:27;15.60;99.90
15048;DHT22;7621;52.350;13.308;2023-04-01T08:36:19;15.60;99.90
15048;DHT22;7621;52.350;13.308;2023-04-01T08:39:12;15.50;99.90
15048;DHT22;7621;52.350;13.308;2023-04-01T08:50:19;15.90;99.90
15048;DHT22;7621;52.350;13.308;2023-04-01T08:52:58;15.90;99.40
15048;DHT22;7621;52.350;13.308;2023-04-01T08:55:46;15.90;99.60
15048;DHT22;7621;52.350;13.308;2023-04-01T09:01:02;16.00;99.90
15048;DHT22;7621;52.350;13.308;2023-04-01T09:03:50;16.00;99.60
15048;DHT22;7621;52.350;13.308;2023-04-01T09:06:28;16.00;99.40
15048;DHT22;7621;52.350;13.308;2023-04-01T09:12:06;16.00;99.40
15048;DHT22;7621;52.350;13.308;2023-04-01T09:20:42;15.70;98.90
15048;DHT22;7621;52.350;13.308;2023-04-01T09:23:35;15.60;99.00
15048;DHT22;7621;52.350;13.308;2023-04-01T09:26:26;15.60;99.30
15048;DHT22;7621;52.350;13.308;2023-04-01T09:35:24;15.50;99.40
15048;DHT22;7621;52.350;13.308;2023-04-01T09:43:26;15.40;99.90
15048;DHT22;7621;52.350;13.308;2023-04-01T09:52:10;15.50;99.90
15048;DHT22;7621;52.350;13.308;2023-04-01T09:58:11;15.60;99.90
15048;DHT22;7621;52.350;13.308;2023-04-01T10:01:12;15.50;99.60
15048;DHT22;7621;52.350;13.308;2023-04-01T10:04:02;15.40;99.30
15048;DHT22;7621;52.350;13.308;2023-04-01T10:06:49;15.30;99.70
15048;DHT22;7621;52.350;13.308;2023-04-01T10:09:39;15.10;99.70
15048;DHT22;7621;52.350;13.308;2023-04-01T10:12:41;14.90;99.90
15048;DHT22;7621;52.350;13.308;2023-04-01T10:15:27;14.60;99.90
15048;DHT22;7621;52.350;13.308;2023-04-01T10:29:08;13.50;99.90
15048;DHT22;7621;52.350;13.308;2023-04-01T10:40:38;13.20;99.90
15048;DHT22;7621;52.350;13.308;2023-04-01T10:57:28;12.80;99.90
15048;DHT22;7621;52.350;13.308;2023-04-01T11:00:08;12.80;99.90
15048;DHT22;7621;52.350;13.308;2023-04-01T11:08:39;12.80;99.90
15048;DHT22;7621;52.350;13.308;2023-04-01T11:11:52;12.80;99.90
15048;DHT22;7621;52.350;13.308;2023-04-01T14:16:56;10.60;99.90
15048;DHT22;7621;52.350;13.308;2023-04-01T14:28:10;10.30;99.90
15048;DHT22;7621;52.350;13.308;2023-04-01T14:31:38;10.20;99.90
15048;DHT22;7621;52.350;13.308;2023-04-01T14:34:24;10.20;99.90
15048;DHT22;7621;52.350;13.308;2023-04-01T14:40:16;10.20;99.90
15048;DHT22;7621;52.350;13.308;2023-04-01T14:43:14;10.20;99.90
15048;DHT22;7621;52.350;13.308;2023-04-01T14:51:46;10.20;99.90
15048;DHT22;7621;52.350;13.308;2023-04-01T14:56:46;10.10;99.90
15048;DHT22;7621;52.350;13.308;2023-04-01T15:14:57;9.90;99.90
15048;DHT22;7621;52.350;13.308;2023-04-01T15:17:43;9.80;99.90
15048;DHT22;7621;52.350;13.308;2023-04-01T15:20:33;9.70;99.90
15048;DHT22;7621;52.350;13.308;2023-04-01T15:28:56;9.50;99.90
15048;DHT22;7621;52.350;13.308;2023-04-01T15:31:48;9.50;99.90
15048;DHT22;7621;52.350;13.308;2023-04-01T15:37:09;9.40;99.90
15048;DHT22;7621;52.350;13.308;2023-04-01T15:42:34;9.40;99.90
15048;DHT22;7621;52.350;13.308;2023-04-01T15:48:20;9.30;99.90
15048;DHT22;7621;52.350;13.308;2023-04-01T15:51:11;9.30;99.90
15048;DHT22;7621;52.350;13.308;2023-04-01T15:54:06;9.20;99.90
15048;DHT22;7621;52.350;13.308;2023-04-01T16:05:00;9.20;99.90
15048;DHT22;7621;52.350;13.308;2023-04-01T16:07:42;9.20;99.90
15048;DHT22;7621;52.350;13.308;2023-04-01T16:10:09;9.20;99.90
15048;DHT22;7621;52.350;13.308;2023-04-01T16:15:33;9.10;99.90
15048;DHT22;7621;52.350;13.308;2023-04-01T16:20:55;9.00;99.90
15048;DHT22;7621;52.350;13.308;2023-04-01T16:23:36;9.00;99.90
15048;DHT22;7621;52.350;13.308;2023-04-01T16:26:16;9.00;99.90
15048;DHT22;7621;52.350;13.308;2023-04-01T16:29:11;9.00;99.90
15048;DHT22;7621;52.350;13.308;2023-04-01T16:35:21;8.90;99.90
15048;DHT22;7621;52.350;13.308;2023-04-01T16:37:49;8.90;99.90
15048;DHT22;7621;52.350;13.308;2023-04-01T16:40:32;8.80;99.90
15048;DHT22;7621;52.350;13.308;2023-04-01T16:46:28;8.80;99.90
15048;DHT22;7621;52.350;13.308;2023-04-01T16:51:34;8.70;99.90
15048;DHT22;7621;52.350;13.308;2023-04-01T16:54:11;8.70;99.90
15048;DHT22;7621;52.350;13.308;2023-04-01T16:56:52;8.70;99.90
15048;DHT22;7621;52.350;13.308;2023-04-01T16:59:34;8.70;99.90
15048;DHT22;7621;52.350;13.308;2023-04-01T17:02:07;8.70;99.90
15048;DHT22;7621;52.350;13.308;2023-04-01T17:05:00;8.70;99.90
15048;DHT22;7621;52.350;13.308;2023-04-01T17:07:44;8.70;99.90
15048;DHT22;7621;52.350;13.308;2023-04-01T17:16:10;8.50;99.90
15048;DHT22;7621;52.350;13.308;2023-04-01T17:21:18;8.50;99.90
15048;DHT22;7621;52.350;13.308;2023-04-01T17:24:07;8.40;99.90
15048;DHT22;7621;52.350;13.308;2023-04-01T17:29:31;8.30;99.90
15048;DHT22;7621;52.350;13.308;2023-04-01T17:35:15;8.30;99.90
15048;DHT22;7621;52.350;13.308;2023-04-01T17:40:41;8.30;99.90
15048;DHT22;7621;52.350;13.308;2023-04-01T17:45:55;8.20;99.90
15048;DHT22;7621;52.350;13.308;2023-04-01T17:51:32;8.10;99.90
15048;DHT22;7621;52.350;13.308;2023-04-01T17:56:49;7.90;99.90
15048;DHT22;7621;52.350;13.308;2023-04-01T17:59:35;7.90;99.90
15048;DHT22;7621;52.350;13.308;2023-04-01T18:02:21;7.90;99.90
15048;DHT22;7621;52.350;13.308;2023-04-01T18:05:14;7.90;99.90
15048;DHT22;7621;52.350;13.308;2023-04-01T18:08:09;7.90;99.90
15048;DHT22;7621;52.350;13.308;2023-04-01T18:10:53;7.80;99.90
15048;DHT22;7621;52.350;13.308;2023-04-01T18:19:27;7.70;99.90
15048;DHT22;7621;52.350;13.308;2023-04-01T18:22:22;7.70;99.90
15048;DHT22;7621;52.350;13.308;2023-04-01T18:27:41;7.70;99.90
15048;DHT22;7621;52.350;13.308;2023-04-01T18:30:22;7.80;99.90
15048;DHT22;7621;52.350;13.308;2023-04-01T18:33:25;7.70;99.90
15048;DHT22;7621;52.350;13.308;2023-04-01T18:38:53;7.50;99.90
15048;DHT22;7621;52.350;13.308;2023-04-01T18:41:34;7.50;99.90
15048;DHT22;7621;52.350;13.308;2023-04-01T18:44:12;7.50;99.90
15048;DHT22;7621;52.350;13.308;2023-04-01T18:46:52;7.50;99.90
15048;DHT22;7621;52.350;13.308;2023-04-01T18:49:39;7.40;99.90
15048;DHT22;7621;52.350;13.308;2023-04-01T18:57:46;7.30;99.90
15048;DHT22;7621;52.350;13.308;2023-04-01T19:00:14;7.30;99.90
15048;DHT22;7621;52.350;13.308;2023-04-01T19:03:10;7.30;99.90
15048;DHT22;7621;52.350;13.308;2023-04-01T19:05:42;7.20;99.90
15048;DHT22;7621;52.350;13.308;2023-04-01T19:08:32;7.20;99.90
15048;DHT22;7621;52.350;13.308;2023-04-01T19:11:01;7.20;99.90
15048;DHT22;7621;52.350;13.308;2023-04-01T19:19:40;7.10;99.90
15048;DHT22;7621;52.350;13.308;2023-04-01T19:22:31;7.10;99.90
15048;DHT22;7621;52.350;13.308;2023-04-01T19:28:16;7.10;99.90
15048;DHT22;7621;52.350;13.308;2023-04-01T19:30:56;7.10;99.90
15048;DHT22;7621;52.350;13.308;2023-04-01T19:36:16;7.00;99.90
15048;DHT22;7621;52.350;13.308;2023-04-01T19:38:55;7.00;99.90
15048;DHT22;7621;52.350;13.308;2023-04-01T19:41:36;7.00;99.90
15048;DHT22;7621;52.350;13.308;2023-04-01T19:44:19;7.00;99.90
15048;DHT22;7621;52.350;13.308;2023-04-01T19:46:49;6.90;99.90
15048;DHT22;7621;52.350;13.308;2023-04-01T19:54:52;6.80;99.90
15048;DHT22;7621;52.350;13.308;2023-04-01T20:00:01;6.80;99.90
15048;DHT22;7621;52.350;13.308;2023-04-01T20:02:38;6.80;99.90
15048;DHT22;7621;52.350;13.308;2023-04-01T20:07:50;6.80;99.90
15048;DHT22;7621;52.350;13.308;2023-04-01T20:10:22;6.80;99.90
15048;DHT22;7621;52.350;13.308;2023-04-01T20:13:06;6.80;99.90
15048;DHT22;7621;52.350;13.308;2023-04-01T20:15:40;6.80;99.90
15048;DHT22;7621;52.350;13.308;2023-04-01T20:18:17;6.80;99.90
15048;DHT22;7621;52.350;13.308;2023-04-01T20:20:54;6.80;99.90
15048;DHT22;7621;52.350;13.308;2023-04-01T20:23:42;6.80;99.90
15048;DHT22;7621;52.350;13.308;2023-04-01T20:26:11;6.70;99.90
15048;DHT22;7621;52.350;13.308;2023-04-01T20:31:36;6.60;99.90
15048;DHT22;7621;52.350;13.308;2023-04-01T20:34:19;6.60;99.90
15048;DHT22;7621;52.350;13.308;2023-04-01T20:40:17;6.60;99.90
15048;DHT22;7621;52.350;13.308;2023-04-01T20:51:34;6.40;99.90
15048;DHT22;7621;52.350;13.308;2023-04-01T21:05:45;6.30;99.90
15048;DHT22;7621;52.350;13.308;2023-04-01T21:08:49;6.20;99.90
15048;DHT22;7621;52.350;13.308;2023-04-01T21:17:53;6.20;99.90
15048;DHT22;7621;52.350;13.308;2023-04-01T21:20:43;6.20;99.90
